createdAt,value
2016-11-13T00:00:30.782Z,0
2016-11-13T00:01:30.805Z,0
2016-11-13T00:02:30.813Z,0
2016-11-13T00:03:30.831Z,0
2016-11-13T00:04:30.843Z,0
2016-11-13T00:05:30.838Z,0
2016-11-13T00:06:30.867Z,0
2016-11-13T00:07:30.857Z,0
2016-11-13T00:08:30.879Z,0
2016-11-13T00:09:30.895Z,0
2016-11-13T00:10:30.915Z,0
2016-11-13T00:11:30.917Z,0
2016-11-13T00:12:30.926Z,0
2016-11-13T00:13:30.944Z,0
2016-11-13T00:14:30.964Z,0
2016-11-13T00:15:30.972Z,0
2016-11-13T00:16:30.977Z,0
2016-11-13T00:17:30.990Z,0
2016-11-13T00:18:30.998Z,0
2016-11-13T00:19:31.025Z,0
2016-11-13T00:20:31.036Z,0
2016-11-13T00:21:31.038Z,0
2016-11-13T00:22:31.049Z,0
2016-11-13T00:23:31.063Z,0
2016-11-13T00:24:31.077Z,0
2016-11-13T00:25:31.102Z,0
2016-11-13T00:26:31.103Z,0
2016-11-13T00:27:31.112Z,0
2016-11-13T00:28:31.108Z,0
2016-11-13T00:29:31.135Z,0
2016-11-13T00:30:31.140Z,0
2016-11-13T00:31:31.148Z,0
2016-11-13T00:32:31.162Z,0
2016-11-13T00:33:31.174Z,0
2016-11-13T00:34:31.192Z,0
2016-11-13T00:35:31.199Z,0
2016-11-13T00:36:31.206Z,0
2016-11-13T00:37:31.219Z,0
2016-11-13T00:38:31.231Z,0
2016-11-13T00:39:31.236Z,0
2016-11-13T00:40:31.269Z,0
2016-11-13T00:41:31.274Z,0
2016-11-13T00:42:31.268Z,0
2016-11-13T00:43:31.286Z,0
2016-11-13T00:44:31.299Z,0
2016-11-13T00:45:31.308Z,0
2016-11-13T00:46:31.317Z,0
2016-11-13T00:47:31.333Z,0
2016-11-13T00:48:31.345Z,0
2016-11-13T00:49:31.360Z,0
2016-11-13T00:50:31.371Z,0
2016-11-13T00:51:31.374Z,0
2016-11-13T00:52:31.398Z,0
2016-11-13T00:53:31.411Z,0
2016-11-13T00:54:31.420Z,0
2016-11-13T00:55:31.421Z,0
2016-11-13T00:56:31.435Z,0
2016-11-13T00:57:31.459Z,0
2016-11-13T00:58:31.471Z,0
2016-11-13T00:59:31.476Z,0
2016-11-13T01:00:31.487Z,0
2016-11-13T01:01:31.502Z,0
2016-11-13T01:02:31.512Z,0
2016-11-13T01:03:31.530Z,0
2016-11-13T01:04:31.536Z,0
2016-11-13T01:05:31.548Z,0
2016-11-13T01:06:31.553Z,0
2016-11-13T01:07:31.579Z,0
2016-11-13T01:08:31.573Z,0
2016-11-13T01:09:31.593Z,0
2016-11-13T01:10:31.618Z,0
2016-11-13T01:11:31.605Z,0
2016-11-13T01:12:31.627Z,0
2016-11-13T01:13:31.633Z,0
2016-11-13T01:14:31.660Z,0
2016-11-13T01:15:31.666Z,0
2016-11-13T01:16:31.674Z,0
2016-11-13T01:17:31.686Z,0
2016-11-13T01:18:31.703Z,0
2016-11-13T01:19:31.710Z,0
2016-11-13T01:20:31.720Z,0
2016-11-13T01:21:31.735Z,0
2016-11-13T01:22:31.744Z,0
2016-11-13T01:23:31.750Z,0
2016-11-13T01:24:31.769Z,0
2016-11-13T01:25:31.788Z,0
2016-11-13T01:26:31.802Z,0
2016-11-13T01:27:31.875Z,0
2016-11-13T01:28:31.815Z,0
2016-11-13T01:29:31.834Z,0
2016-11-13T01:30:31.845Z,0
2016-11-13T01:31:31.853Z,0
2016-11-13T01:32:31.858Z,0
2016-11-13T01:33:31.875Z,0
2016-11-13T01:34:31.884Z,0
2016-11-13T01:35:31.924Z,0
2016-11-13T01:36:31.913Z,0
2016-11-13T01:37:31.913Z,0
2016-11-13T01:38:31.939Z,0
2016-11-13T01:39:31.938Z,0
2016-11-13T01:40:31.959Z,0
2016-11-13T01:41:31.971Z,0
2016-11-13T01:42:31.969Z,0
2016-11-13T01:43:31.990Z,0
2016-11-13T01:44:32.001Z,0
2016-11-13T01:45:32.014Z,0
2016-11-13T01:46:32.015Z,0
2016-11-13T01:47:32.041Z,0
2016-11-13T01:48:32.053Z,0
2016-11-13T01:49:32.059Z,0
2016-11-13T01:50:32.076Z,0
2016-11-13T01:51:32.082Z,0
2016-11-13T01:52:32.086Z,0
2016-11-13T01:53:32.114Z,0
2016-11-13T01:54:32.113Z,0
2016-11-13T01:55:32.128Z,0
2016-11-13T01:56:32.138Z,0
2016-11-13T01:57:32.159Z,0
2016-11-13T01:58:32.176Z,0
2016-11-13T01:59:32.176Z,0
2016-11-13T02:00:32.186Z,0
2016-11-13T02:01:32.195Z,0
2016-11-13T02:02:32.212Z,0
2016-11-13T02:03:32.210Z,0
2016-11-13T02:04:32.228Z,0
2016-11-13T02:05:32.246Z,0
2016-11-13T02:06:32.291Z,0
2016-11-13T02:07:32.277Z,0
2016-11-13T02:08:32.278Z,0
2016-11-13T02:09:32.290Z,0
2016-11-13T02:10:32.303Z,0
2016-11-13T02:11:32.325Z,0
2016-11-13T02:12:32.324Z,0
2016-11-13T02:13:32.326Z,0
2016-11-13T02:14:32.341Z,0
2016-11-13T02:15:32.357Z,0
2016-11-13T02:16:32.372Z,0
2016-11-13T02:17:32.375Z,0
2016-11-13T02:18:32.408Z,0
2016-11-13T02:19:32.409Z,0
2016-11-13T02:20:32.426Z,0
2016-11-13T02:21:32.435Z,0
2016-11-13T02:22:32.450Z,0
2016-11-13T02:23:32.454Z,0
2016-11-13T02:24:32.472Z,0
2016-11-13T02:25:32.483Z,0
2016-11-13T02:26:32.495Z,0
2016-11-13T02:27:32.497Z,0
2016-11-13T02:28:32.507Z,0
2016-11-13T02:29:32.534Z,0
2016-11-13T02:30:32.542Z,0
2016-11-13T02:31:32.540Z,0
2016-11-13T02:32:32.561Z,0
2016-11-13T02:33:32.574Z,0
2016-11-13T02:34:32.570Z,0
2016-11-13T02:35:32.620Z,0
2016-11-13T02:36:32.596Z,0
2016-11-13T02:37:32.611Z,0
2016-11-13T02:38:32.627Z,0
2016-11-13T02:39:32.643Z,0
2016-11-13T02:40:32.650Z,0
2016-11-13T02:41:32.671Z,0
2016-11-13T02:42:32.668Z,0
2016-11-13T02:43:32.673Z,0
2016-11-13T02:44:32.690Z,0
2016-11-13T02:45:32.707Z,0
2016-11-13T02:46:32.719Z,0
2016-11-13T02:47:32.731Z,0
2016-11-13T02:48:32.745Z,0
2016-11-13T02:49:32.747Z,0
2016-11-13T02:50:32.767Z,0
2016-11-13T02:51:32.771Z,0
2016-11-13T02:52:32.789Z,0
2016-11-13T02:53:32.803Z,0
2016-11-13T02:54:32.806Z,0
2016-11-13T02:55:32.831Z,0
2016-11-13T02:56:32.829Z,0
2016-11-13T02:57:32.846Z,0
2016-11-13T02:58:32.856Z,0
2016-11-13T02:59:32.872Z,0
2016-11-13T03:00:32.869Z,0
2016-11-13T03:01:32.898Z,0
2016-11-13T03:02:32.906Z,0
2016-11-13T03:03:32.914Z,0
2016-11-13T03:04:32.921Z,0
2016-11-13T03:05:32.935Z,0
2016-11-13T03:06:32.947Z,0
2016-11-13T03:07:32.963Z,0
2016-11-13T03:08:32.997Z,0
2016-11-13T03:09:32.976Z,0
2016-11-13T03:10:32.980Z,0
2016-11-13T03:11:33.009Z,0
2016-11-13T03:12:33.013Z,0
2016-11-13T03:13:33.034Z,0
2016-11-13T03:14:33.039Z,0
2016-11-13T03:15:33.046Z,0
2016-11-13T03:16:33.376Z,0
2016-11-13T03:17:33.075Z,0
2016-11-13T03:18:33.087Z,0
2016-11-13T03:19:33.106Z,0
2016-11-13T03:20:33.110Z,0
2016-11-13T03:21:33.134Z,0
2016-11-13T03:22:33.134Z,0
2016-11-13T03:23:33.136Z,0
2016-11-13T03:24:33.157Z,0
2016-11-13T03:25:33.166Z,0
2016-11-13T03:26:33.169Z,0
2016-11-13T03:27:33.186Z,0
2016-11-13T03:28:33.207Z,0
2016-11-13T03:29:33.218Z,0
2016-11-13T03:30:33.229Z,0
2016-11-13T03:31:33.237Z,0
2016-11-13T03:32:33.242Z,0
2016-11-13T03:33:33.263Z,0
2016-11-13T03:34:33.302Z,0
2016-11-13T03:35:33.279Z,0
2016-11-13T03:36:33.289Z,0
2016-11-13T03:37:33.306Z,0
2016-11-13T03:38:33.323Z,0
2016-11-13T03:39:33.324Z,0
2016-11-13T03:40:33.337Z,0
2016-11-13T03:41:33.340Z,0
2016-11-13T03:42:33.375Z,0
2016-11-13T03:43:33.382Z,0
2016-11-13T03:44:33.472Z,0
2016-11-13T03:45:33.402Z,0
2016-11-13T03:46:33.726Z,0
2016-11-13T03:47:33.415Z,0
2016-11-13T03:48:33.429Z,0
2016-11-13T03:49:33.453Z,0
2016-11-13T03:50:33.460Z,0
2016-11-13T03:51:33.460Z,0
2016-11-13T03:52:33.478Z,0
2016-11-13T03:53:33.491Z,0
2016-11-13T03:54:33.499Z,0
2016-11-13T03:55:33.505Z,0
2016-11-13T03:56:33.532Z,0
2016-11-13T03:57:33.542Z,0
2016-11-13T03:58:33.558Z,0
2016-11-13T03:59:33.566Z,0
2016-11-13T04:01:33.606Z,0
2016-11-13T04:02:33.619Z,0
2016-11-13T04:03:33.638Z,0
2016-11-13T04:04:33.630Z,0
2016-11-13T04:05:33.649Z,0
2016-11-13T04:06:33.756Z,0
2016-11-13T04:07:33.712Z,0
2016-11-13T04:08:33.684Z,0
2016-11-13T04:09:33.700Z,0
2016-11-13T04:10:33.716Z,0
2016-11-13T04:11:33.716Z,0
2016-11-13T04:12:33.724Z,0
2016-11-13T04:13:33.735Z,0
2016-11-13T04:14:33.747Z,0
2016-11-13T04:15:33.766Z,0
2016-11-13T04:16:33.773Z,0
2016-11-13T04:17:33.792Z,0
2016-11-13T04:18:33.807Z,0
2016-11-13T04:19:33.810Z,0
2016-11-13T04:20:33.814Z,0
2016-11-13T04:21:33.832Z,0
2016-11-13T04:22:33.833Z,0
2016-11-13T04:23:33.860Z,0
2016-11-13T04:24:33.862Z,0
2016-11-13T04:25:33.883Z,0
2016-11-13T04:26:33.892Z,0
2016-11-13T04:27:33.900Z,0
2016-11-13T04:28:33.925Z,0
2016-11-13T04:29:33.933Z,0
2016-11-13T04:30:33.940Z,0
2016-11-13T04:31:33.955Z,0
2016-11-13T04:32:33.958Z,0
2016-11-13T04:33:33.978Z,0
2016-11-13T04:34:33.990Z,0
2016-11-13T04:35:34.002Z,0
2016-11-13T04:36:34.078Z,0
2016-11-13T04:37:34.018Z,0
2016-11-13T04:38:34.028Z,0
2016-11-13T04:39:34.054Z,0
2016-11-13T04:40:34.051Z,0
2016-11-13T04:41:34.063Z,0
2016-11-13T04:42:34.074Z,0
2016-11-13T04:43:34.096Z,0
2016-11-13T04:44:34.105Z,0
2016-11-13T04:45:34.107Z,0
2016-11-13T04:46:34.125Z,0
2016-11-13T04:47:34.170Z,0
2016-11-13T04:48:34.134Z,0
2016-11-13T04:49:34.158Z,0
2016-11-13T04:50:34.220Z,0
2016-11-13T04:51:34.200Z,0
2016-11-13T04:52:34.179Z,0
2016-11-13T04:53:34.206Z,0
2016-11-13T04:54:34.219Z,0
2016-11-13T04:55:34.225Z,0
2016-11-13T04:56:34.234Z,0
2016-11-13T04:57:34.324Z,0
2016-11-13T04:58:34.252Z,0
2016-11-13T04:59:34.282Z,0
2016-11-13T05:00:34.288Z,0
2016-11-13T05:01:34.294Z,0
2016-11-13T05:02:34.298Z,0
2016-11-13T05:03:34.320Z,0
2016-11-13T05:04:34.334Z,0
2016-11-13T05:05:34.342Z,0
2016-11-13T05:06:34.350Z,0
2016-11-13T05:07:34.373Z,0
2016-11-13T05:08:34.366Z,0
2016-11-13T05:09:34.393Z,0
2016-11-13T05:10:34.386Z,0
2016-11-13T05:11:34.406Z,0
2016-11-13T05:12:34.411Z,0
2016-11-13T05:13:34.438Z,0
2016-11-13T05:14:34.480Z,0
2016-11-13T05:15:34.449Z,0
2016-11-13T05:16:34.465Z,0
2016-11-13T05:17:34.476Z,0
2016-11-13T05:18:34.477Z,0
2016-11-13T05:19:34.583Z,0
2016-11-13T05:20:34.499Z,0
2016-11-13T05:21:34.522Z,0
2016-11-13T05:22:34.531Z,0
2016-11-13T05:23:34.539Z,0
2016-11-13T05:24:34.554Z,0
2016-11-13T05:25:34.573Z,0
2016-11-13T05:26:34.679Z,0
2016-11-13T05:27:34.586Z,0
2016-11-13T05:28:34.599Z,0
2016-11-13T05:29:34.608Z,0
2016-11-13T05:30:34.630Z,0
2016-11-13T05:31:34.726Z,0
2016-11-13T05:32:34.677Z,0
2016-11-13T05:33:34.667Z,0
2016-11-13T05:34:34.670Z,0
2016-11-13T05:35:34.684Z,0
2016-11-13T05:36:34.681Z,0
2016-11-13T05:37:34.700Z,0
2016-11-13T05:38:34.714Z,0
2016-11-13T05:39:34.729Z,0
2016-11-13T05:40:34.742Z,0
2016-11-13T05:41:34.736Z,0
2016-11-13T05:42:34.761Z,0
2016-11-13T05:43:34.766Z,0
2016-11-13T05:44:34.783Z,0
2016-11-13T05:45:34.822Z,0
2016-11-13T05:46:34.805Z,0
2016-11-13T05:47:34.814Z,0
2016-11-13T05:48:34.869Z,0
2016-11-13T05:49:34.845Z,0
2016-11-13T05:50:34.844Z,0
2016-11-13T05:51:34.865Z,0
2016-11-13T05:52:34.879Z,0
2016-11-13T05:53:34.882Z,0
2016-11-13T05:54:34.887Z,0
2016-11-13T05:55:34.908Z,0
2016-11-13T05:56:34.915Z,0
2016-11-13T05:57:34.924Z,0
2016-11-13T05:58:34.928Z,0
2016-11-13T05:59:34.938Z,0
2016-11-13T06:00:34.955Z,0
2016-11-13T06:01:34.960Z,0
2016-11-13T06:02:34.990Z,0
2016-11-13T06:03:34.983Z,0
2016-11-13T06:04:35.002Z,0
2016-11-13T06:05:35.015Z,0
2016-11-13T06:06:35.030Z,0
2016-11-13T06:07:35.022Z,0
2016-11-13T06:08:35.045Z,4
2016-11-13T06:09:35.057Z,4
2016-11-13T06:10:35.073Z,0
2016-11-13T06:11:35.085Z,0
2016-11-13T06:12:35.090Z,4
2016-11-13T06:13:35.098Z,0
2016-11-13T06:14:35.113Z,4
2016-11-13T06:15:35.218Z,8
2016-11-13T06:16:35.143Z,4
2016-11-13T06:17:35.143Z,8
2016-11-13T06:18:35.160Z,8
2016-11-13T06:19:35.174Z,8
2016-11-13T06:20:35.173Z,12
2016-11-13T06:21:35.195Z,12
2016-11-13T06:22:35.196Z,16
2016-11-13T06:23:35.215Z,20
2016-11-13T06:24:35.218Z,24
2016-11-13T06:25:35.234Z,24
2016-11-13T06:26:35.248Z,28
2016-11-13T06:27:35.265Z,28
2016-11-13T06:28:35.270Z,36
2016-11-13T06:29:35.283Z,40
2016-11-13T06:30:35.297Z,44
2016-11-13T06:31:35.305Z,52
2016-11-13T06:32:35.307Z,60
2016-11-13T06:33:35.329Z,64
2016-11-13T06:34:35.328Z,72
2016-11-13T06:35:35.342Z,80
2016-11-13T06:36:35.355Z,92
2016-11-13T06:37:35.367Z,96
2016-11-13T06:38:35.371Z,104
2016-11-13T06:39:35.387Z,112
2016-11-13T06:40:35.398Z,124
2016-11-13T06:41:35.410Z,136
2016-11-13T06:42:35.425Z,144
2016-11-13T06:43:35.442Z,160
2016-11-13T06:44:35.439Z,172
2016-11-13T06:45:35.492Z,184
2016-11-13T06:46:35.465Z,200
2016-11-13T06:47:35.484Z,212
2016-11-13T06:48:35.489Z,228
2016-11-13T06:49:35.508Z,248
2016-11-13T06:50:35.519Z,264
2016-11-13T06:51:35.526Z,284
2016-11-13T06:52:35.527Z,308
2016-11-13T06:53:35.539Z,332
2016-11-13T06:54:35.549Z,352
2016-11-13T06:55:35.651Z,384
2016-11-13T06:56:35.576Z,408
2016-11-13T06:57:35.588Z,432
2016-11-13T06:58:35.603Z,464
2016-11-13T06:59:35.611Z,496
2016-11-13T07:00:35.623Z,532
2016-11-13T07:01:35.636Z,568
2016-11-13T07:02:35.636Z,604
2016-11-13T07:03:35.667Z,632
2016-11-13T07:04:35.690Z,660
2016-11-13T07:05:35.725Z,684
2016-11-13T07:06:35.684Z,716
2016-11-13T07:07:35.700Z,748
2016-11-13T07:08:35.723Z,792
2016-11-13T07:09:35.730Z,836
2016-11-13T07:10:35.734Z,888
2016-11-13T07:11:35.746Z,948
2016-11-13T07:12:35.760Z,1004
2016-11-13T07:13:35.769Z,1048
2016-11-13T07:14:35.779Z,1084
2016-11-13T07:15:35.789Z,1116
2016-11-13T07:16:35.803Z,1152
2016-11-13T07:17:35.812Z,1180
2016-11-13T07:18:35.822Z,1200
2016-11-13T07:19:35.830Z,1216
2016-11-13T07:20:35.850Z,1220
2016-11-13T07:21:35.884Z,1224
2016-11-13T07:22:35.860Z,1236
2016-11-13T07:23:35.889Z,1260
2016-11-13T07:24:35.883Z,1284
2016-11-13T07:25:35.894Z,1308
2016-11-13T07:26:35.909Z,1328
2016-11-13T07:27:35.922Z,1352
2016-11-13T07:28:35.932Z,1376
2016-11-13T07:29:35.947Z,1400
2016-11-13T07:30:36.034Z,1424
2016-11-13T07:31:35.969Z,1448
2016-11-13T07:32:35.983Z,1480
2016-11-13T07:33:35.998Z,1512
2016-11-13T07:34:36.001Z,1560
2016-11-13T07:35:36.017Z,1588
2016-11-13T07:36:36.020Z,1688
2016-11-13T07:37:36.047Z,1788
2016-11-13T07:38:36.058Z,1848
2016-11-13T07:39:36.074Z,1872
2016-11-13T07:40:36.074Z,1812
2016-11-13T07:41:36.079Z,1676
2016-11-13T07:42:36.101Z,1572
2016-11-13T07:43:36.120Z,1536
2016-11-13T07:44:36.123Z,1528
2016-11-13T07:45:36.135Z,1532
2016-11-13T07:46:36.188Z,1540
2016-11-13T07:47:36.161Z,1544
2016-11-13T07:48:36.166Z,1556
2016-11-13T07:49:36.184Z,1576
2016-11-13T07:50:36.236Z,1592
2016-11-13T07:51:36.197Z,1612
2016-11-13T07:52:36.216Z,1632
2016-11-13T07:53:36.221Z,1656
2016-11-13T07:54:36.281Z,1684
2016-11-13T07:55:36.247Z,1712
2016-11-13T07:56:36.257Z,1744
2016-11-13T07:57:36.283Z,1776
2016-11-13T07:58:36.313Z,1808
2016-11-13T07:59:36.295Z,1844
2016-11-13T08:00:36.302Z,1876
2016-11-13T08:01:36.312Z,1916
2016-11-13T08:02:36.363Z,1952
2016-11-13T08:03:36.343Z,1988
2016-11-13T08:04:36.353Z,2024
2016-11-13T08:05:36.381Z,2044
2016-11-13T08:06:36.380Z,2056
2016-11-13T08:07:36.391Z,2072
2016-11-13T08:08:36.396Z,2076
2016-11-13T08:09:36.410Z,2084
2016-11-13T08:10:36.420Z,2080
2016-11-13T08:11:36.446Z,2072
2016-11-13T08:12:36.449Z,2068
2016-11-13T08:13:36.456Z,2076
2016-11-13T08:14:36.478Z,2088
2016-11-13T08:15:36.491Z,2108
2016-11-13T08:16:36.495Z,2132
2016-11-13T08:17:36.504Z,2160
2016-11-13T08:18:36.514Z,2176
2016-11-13T08:19:36.528Z,2176
2016-11-13T08:20:36.538Z,2172
2016-11-13T08:21:36.549Z,2160
2016-11-13T08:22:36.570Z,2144
2016-11-13T08:23:36.565Z,2136
2016-11-13T08:24:36.580Z,2128
2016-11-13T08:25:36.592Z,2132
2016-11-13T08:26:36.610Z,2140
2016-11-13T08:27:36.885Z,2148
2016-11-13T08:28:36.635Z,2164
2016-11-13T08:29:36.659Z,2168
2016-11-13T08:30:36.660Z,2180
2016-11-13T08:31:36.667Z,2196
2016-11-13T08:32:36.690Z,2212
2016-11-13T08:33:36.688Z,2240
2016-11-13T08:34:36.710Z,2268
2016-11-13T08:35:36.719Z,2300
2016-11-13T08:36:36.734Z,2324
2016-11-13T08:37:36.751Z,2344
2016-11-13T08:38:36.748Z,2368
2016-11-13T08:39:36.761Z,2380
2016-11-13T08:40:36.775Z,2388
2016-11-13T08:41:36.793Z,2388
2016-11-13T08:42:36.802Z,2388
2016-11-13T08:43:36.820Z,2392
2016-11-13T08:44:36.824Z,2392
2016-11-13T08:45:36.828Z,2388
2016-11-13T08:46:36.849Z,2380
2016-11-13T08:47:36.940Z,2368
2016-11-13T08:48:36.870Z,2360
2016-11-13T08:49:36.889Z,2356
2016-11-13T08:50:36.901Z,2352
2016-11-13T08:51:36.908Z,2352
2016-11-13T08:52:36.931Z,2356
2016-11-13T08:53:36.928Z,2360
2016-11-13T08:54:37.320Z,2368
2016-11-13T08:55:36.953Z,2376
2016-11-13T08:56:36.966Z,2384
2016-11-13T08:57:36.979Z,2396
2016-11-13T08:58:36.992Z,2404
2016-11-13T08:59:37.007Z,2404
2016-11-13T09:00:37.021Z,2400
2016-11-13T09:01:37.027Z,2384
2016-11-13T09:02:37.042Z,2372
2016-11-13T09:03:37.049Z,2352
2016-11-13T09:04:37.070Z,2328
2016-11-13T09:05:37.067Z,2304
2016-11-13T09:06:37.084Z,2292
2016-11-13T09:07:37.105Z,2288
2016-11-13T09:08:37.107Z,2292
2016-11-13T09:09:37.123Z,2308
2016-11-13T09:10:37.129Z,2336
2016-11-13T09:11:37.161Z,2368
2016-11-13T09:12:37.154Z,2408
2016-11-13T09:13:37.178Z,2456
2016-11-13T09:14:37.216Z,2500
2016-11-13T09:15:37.195Z,2552
2016-11-13T09:16:37.210Z,2600
2016-11-13T09:17:37.225Z,2648
2016-11-13T09:18:37.225Z,2692
2016-11-13T09:19:37.249Z,2732
2016-11-13T09:20:37.265Z,2768
2016-11-13T09:21:37.277Z,2804
2016-11-13T09:22:37.291Z,2836
2016-11-13T09:23:37.321Z,2872
2016-11-13T09:24:37.307Z,2904
2016-11-13T09:25:37.323Z,2936
2016-11-13T09:26:37.345Z,2968
2016-11-13T09:27:37.353Z,3000
2016-11-13T09:28:37.352Z,3032
2016-11-13T09:29:37.374Z,3064
2016-11-13T09:30:37.373Z,3092
2016-11-13T09:31:37.394Z,3124
2016-11-13T09:32:37.423Z,3152
2016-11-13T09:33:37.415Z,3168
2016-11-13T09:34:37.432Z,3184
2016-11-13T09:35:37.454Z,3196
2016-11-13T09:36:37.456Z,3212
2016-11-13T09:37:37.474Z,3224
2016-11-13T09:38:37.482Z,3236
2016-11-13T09:39:37.486Z,3252
2016-11-13T09:40:37.512Z,3256
2016-11-13T09:41:37.519Z,3272
2016-11-13T09:42:37.532Z,3304
2016-11-13T09:43:37.545Z,3348
2016-11-13T09:44:37.552Z,3360
2016-11-13T09:45:37.570Z,3392
2016-11-13T09:46:37.576Z,3428
2016-11-13T09:47:37.595Z,3464
2016-11-13T09:48:37.606Z,3496
2016-11-13T09:49:37.618Z,3540
2016-11-13T09:50:37.632Z,3580
2016-11-13T09:51:37.737Z,3628
2016-11-13T09:52:37.663Z,3676
2016-11-13T09:53:37.670Z,3720
2016-11-13T09:54:37.680Z,3768
2016-11-13T09:55:37.688Z,3804
2016-11-13T09:56:37.823Z,3832
2016-11-13T09:57:37.719Z,3844
2016-11-13T09:58:37.741Z,3856
2016-11-13T09:59:37.742Z,3856
2016-11-13T10:00:37.765Z,3840
2016-11-13T10:01:37.788Z,3816
2016-11-13T10:02:37.781Z,3784
2016-11-13T10:03:37.800Z,3752
2016-11-13T10:04:37.805Z,3716
2016-11-13T10:05:37.843Z,3676
2016-11-13T10:06:37.835Z,3640
2016-11-13T10:07:37.856Z,3608
2016-11-13T10:08:37.867Z,3584
2016-11-13T10:09:37.870Z,3568
2016-11-13T10:10:37.889Z,3556
2016-11-13T10:11:37.892Z,3556
2016-11-13T10:12:37.905Z,3564
2016-11-13T10:13:37.918Z,3576
2016-11-13T10:14:37.944Z,3596
2016-11-13T10:15:37.960Z,3620
2016-11-13T10:16:37.967Z,3640
2016-11-13T10:17:37.967Z,3668
2016-11-13T10:18:37.979Z,3696
2016-11-13T10:19:37.986Z,3724
2016-11-13T10:20:38.006Z,3760
2016-11-13T10:21:38.019Z,3792
2016-11-13T10:22:38.117Z,3824
2016-11-13T10:23:38.053Z,3864
2016-11-13T10:24:38.070Z,3888
2016-11-13T10:25:38.079Z,3912
2016-11-13T10:26:38.096Z,3932
2016-11-13T10:27:38.096Z,3944
2016-11-13T10:28:38.116Z,3956
2016-11-13T10:29:38.154Z,3964
2016-11-13T10:30:38.147Z,3984
2016-11-13T10:31:38.167Z,4008
2016-11-13T10:32:38.165Z,4032
2016-11-13T10:33:38.171Z,4072
2016-11-13T10:34:38.205Z,4124
2016-11-13T10:35:38.211Z,4172
2016-11-13T10:36:38.216Z,4224
2016-11-13T10:37:38.226Z,4276
2016-11-13T10:38:38.285Z,4324
2016-11-13T10:39:38.252Z,4372
2016-11-13T10:40:38.262Z,4412
2016-11-13T10:41:38.280Z,4452
2016-11-13T10:42:38.295Z,4488
2016-11-13T10:43:38.305Z,4524
2016-11-13T10:44:38.329Z,4552
2016-11-13T10:45:38.336Z,4584
2016-11-13T10:46:38.350Z,4612
2016-11-13T10:47:38.357Z,4632
2016-11-13T10:48:38.360Z,4656
2016-11-13T10:49:38.388Z,4668
2016-11-13T10:50:38.403Z,4684
2016-11-13T10:51:38.408Z,4692
2016-11-13T10:52:38.434Z,4716
2016-11-13T10:53:38.439Z,4724
2016-11-13T10:54:38.447Z,4748
2016-11-13T10:55:38.462Z,4776
2016-11-13T10:56:38.481Z,4804
2016-11-13T10:57:38.486Z,4840
2016-11-13T10:58:38.501Z,4868
2016-11-13T10:59:38.552Z,4900
2016-11-13T11:00:38.547Z,4924
2016-11-13T11:01:38.542Z,4948
2016-11-13T11:02:38.643Z,4972
2016-11-13T11:03:38.560Z,4988
2016-11-13T11:04:38.573Z,5004
2016-11-13T11:05:38.582Z,5008
2016-11-13T11:06:38.613Z,5016
2016-11-13T11:07:38.619Z,5020
2016-11-13T11:08:38.637Z,5024
2016-11-13T11:09:38.652Z,5032
2016-11-13T11:10:38.662Z,5032
2016-11-13T11:11:38.683Z,5032
2016-11-13T11:12:38.692Z,5032
2016-11-13T11:13:38.707Z,5036
2016-11-13T11:14:38.712Z,5040
2016-11-13T11:15:38.725Z,5056
2016-11-13T11:16:38.747Z,5072
2016-11-13T11:17:38.753Z,5100
2016-11-13T11:18:38.779Z,5120
2016-11-13T11:19:38.781Z,5140
2016-11-13T11:20:38.799Z,5160
2016-11-13T11:21:38.807Z,5180
2016-11-13T11:22:38.830Z,5192
2016-11-13T11:23:38.839Z,5208
2016-11-13T11:24:38.848Z,5224
2016-11-13T11:25:38.853Z,5240
2016-11-13T11:26:38.880Z,5256
2016-11-13T11:27:38.891Z,5264
2016-11-13T11:28:38.897Z,5276
2016-11-13T11:29:38.921Z,5292
2016-11-13T11:30:38.928Z,5312
2016-11-13T11:31:38.972Z,5328
2016-11-13T11:32:38.953Z,5352
2016-11-13T11:33:39.307Z,5384
2016-11-13T11:34:38.979Z,5404
2016-11-13T11:35:38.999Z,5432
2016-11-13T11:36:39.012Z,5444
2016-11-13T11:37:39.024Z,5464
2016-11-13T11:38:39.036Z,5484
2016-11-13T11:39:39.085Z,5512
2016-11-13T11:40:39.065Z,5540
2016-11-13T11:41:39.081Z,5588
2016-11-13T11:42:39.123Z,5680
2016-11-13T11:43:39.096Z,5748
2016-11-13T11:44:39.100Z,5680
2016-11-13T11:45:39.124Z,5636
2016-11-13T11:46:39.149Z,5656
2016-11-13T11:47:39.239Z,5704
2016-11-13T11:48:39.171Z,5772
2016-11-13T11:49:39.182Z,5932
2016-11-13T11:50:39.204Z,6164
2016-11-13T11:51:39.206Z,6992
2016-11-13T11:52:39.231Z,7556
2016-11-13T11:53:39.228Z,7236
2016-11-13T11:54:39.249Z,7240
2016-11-13T11:55:39.256Z,7532
2016-11-13T11:56:39.275Z,7132
2016-11-13T11:57:39.337Z,7012
2016-11-13T11:58:39.295Z,7520
2016-11-13T11:59:39.349Z,7536
2016-11-13T12:00:39.332Z,7640
2016-11-13T12:01:39.357Z,7708
2016-11-13T12:02:39.357Z,7508
2016-11-13T12:03:39.361Z,7684
2016-11-13T12:04:39.382Z,7788
2016-11-13T12:05:39.385Z,7428
2016-11-13T12:06:39.403Z,7268
2016-11-13T12:07:39.418Z,7056
2016-11-13T12:08:39.440Z,7500
2016-11-13T12:09:39.441Z,7344
2016-11-13T12:10:39.471Z,7216
2016-11-13T12:11:39.477Z,6784
2016-11-13T12:12:39.494Z,6348
2016-11-13T12:13:39.513Z,5808
2016-11-13T12:14:39.505Z,5764
2016-11-13T12:15:39.533Z,5624
2016-11-13T12:16:39.545Z,5736
2016-11-13T12:17:39.561Z,5604
2016-11-13T12:18:39.579Z,5424
2016-11-13T12:19:39.586Z,5348
2016-11-13T12:20:39.588Z,5368
2016-11-13T12:21:39.618Z,5384
2016-11-13T12:22:39.622Z,5332
2016-11-13T12:23:39.655Z,5220
2016-11-13T12:24:39.653Z,5176
2016-11-13T12:25:39.669Z,5116
2016-11-13T12:26:39.683Z,5012
2016-11-13T12:27:39.699Z,4948
2016-11-13T12:28:39.704Z,4764
2016-11-13T12:29:39.731Z,4684
2016-11-13T12:30:39.733Z,4628
2016-11-13T12:31:39.755Z,4540
2016-11-13T12:32:39.760Z,4464
2016-11-13T12:33:39.879Z,4416
2016-11-13T12:34:39.807Z,4344
2016-11-13T12:35:39.821Z,4260
2016-11-13T12:36:39.827Z,4176
2016-11-13T12:37:39.836Z,4096
2016-11-13T12:38:39.848Z,4048
2016-11-13T12:39:39.854Z,4008
2016-11-13T12:40:39.871Z,3968
2016-11-13T12:41:39.894Z,3912
2016-11-13T12:42:39.907Z,3884
2016-11-13T12:43:39.922Z,3848
2016-11-13T12:44:39.935Z,3800
2016-11-13T12:45:39.945Z,3732
2016-11-13T12:46:39.973Z,3652
2016-11-13T12:47:39.972Z,3604
2016-11-13T12:48:39.978Z,3552
2016-11-13T12:49:40.000Z,3504
2016-11-13T12:50:40.015Z,3472
2016-11-13T12:51:40.017Z,3436
2016-11-13T12:52:40.039Z,3408
2016-11-13T12:53:40.053Z,3384
2016-11-13T12:54:40.067Z,3364
2016-11-13T12:55:40.085Z,3348
2016-11-13T12:56:40.085Z,3336
2016-11-13T12:57:40.112Z,3328
2016-11-13T12:58:40.132Z,3328
2016-11-13T12:59:40.129Z,3332
2016-11-13T13:00:40.149Z,3332
2016-11-13T13:01:40.157Z,3340
2016-11-13T13:02:40.186Z,3360
2016-11-13T13:03:40.179Z,3408
2016-11-13T13:04:40.201Z,3372
2016-11-13T13:05:40.215Z,3368
2016-11-13T13:06:40.235Z,3384
2016-11-13T13:07:40.235Z,3404
2016-11-13T13:08:40.253Z,3372
2016-11-13T13:09:40.280Z,3368
2016-11-13T13:10:40.277Z,3360
2016-11-13T13:11:40.299Z,3392
2016-11-13T13:12:40.308Z,3404
2016-11-13T13:13:40.393Z,3360
2016-11-13T13:14:40.343Z,3388
2016-11-13T13:15:40.342Z,3408
2016-11-13T13:16:40.364Z,3420
2016-11-13T13:17:40.370Z,3448
2016-11-13T13:18:40.386Z,3444
2016-11-13T13:19:40.407Z,3444
2016-11-13T13:20:40.427Z,3440
2016-11-13T13:21:40.427Z,3472
2016-11-13T13:22:40.444Z,3508
2016-11-13T13:23:40.460Z,3568
2016-11-13T13:24:40.467Z,3616
2016-11-13T13:25:40.476Z,3588
2016-11-13T13:26:40.555Z,3848
2016-11-13T13:27:40.510Z,3828
2016-11-13T13:28:40.533Z,3844
2016-11-13T13:29:40.534Z,3856
2016-11-13T13:30:40.549Z,3800
2016-11-13T13:31:40.562Z,3744
2016-11-13T13:32:40.579Z,3712
2016-11-13T13:33:40.587Z,3688
2016-11-13T13:34:40.631Z,3660
2016-11-13T13:35:40.615Z,3608
2016-11-13T13:36:40.637Z,3612
2016-11-13T13:37:40.645Z,3564
2016-11-13T13:38:40.661Z,3540
2016-11-13T13:39:40.667Z,3496
2016-11-13T13:40:40.691Z,3412
2016-11-13T13:41:40.795Z,3368
2016-11-13T13:42:40.747Z,3336
2016-11-13T13:43:40.722Z,3316
2016-11-13T13:44:40.738Z,3300
2016-11-13T13:45:40.753Z,3260
2016-11-13T13:46:40.773Z,3216
2016-11-13T13:47:40.773Z,3156
2016-11-13T13:48:40.792Z,3112
2016-11-13T13:49:40.795Z,3084
2016-11-13T13:50:40.829Z,3056
2016-11-13T13:51:40.820Z,3040
2016-11-13T13:52:40.847Z,3020
2016-11-13T13:53:40.854Z,3004
2016-11-13T13:54:40.878Z,2988
2016-11-13T13:55:40.887Z,2976
2016-11-13T13:56:40.891Z,2968
2016-11-13T13:57:40.909Z,2956
2016-11-13T13:58:40.924Z,2948
2016-11-13T13:59:40.938Z,2940